Time;durP1;ratioP1;P1;durP2;ratioP2;P2;SDS_P1;SDS_P2;PMS_P1;PMS_P2;Temp;Humidity;BMP_temperature;BMP_pressure;BME280_temperature;BME280_humidity;BME280_pressure;Samples;Min_cycle;Max_cycle;Signal;HPM_P1;HPM_P2
2022/08/03 00:02:00;;;;;;;2.45;1.80;;;25.70;61.90;;;;;;5003398;28;20468;-71
2022/08/03 00:04:26;;;;;;;2.28;1.98;;;25.70;61.90;;;;;;5005754;28;20499;-68
2022/08/03 00:06:52;;;;;;;2.60;1.80;;;25.70;62.00;;;;;;5004145;28;20480;-67
2022/08/03 00:09:17;;;;;;;2.78;2.13;;;25.70;62.10;;;;;;5005874;28;20505;-69
2022/08/03 00:11:43;;;;;;;2.28;1.80;;;25.70;62.20;;;;;;5002933;28;20894;-69
2022/08/03 00:14:10;;;;;;;2.43;1.87;;;25.70;62.20;;;;;;5002765;28;20405;-68
2022/08/03 00:16:36;;;;;;;2.33;2.10;;;25.70;62.00;;;;;;5001766;28;20414;-67
2022/08/03 00:19:02;;;;;;;2.10;1.80;;;25.70;62.00;;;;;;4994630;28;20893;-67
2022/08/03 00:21:28;;;;;;;2.65;1.83;;;25.70;62.00;;;;;;4994624;28;20834;-68
2022/08/03 00:23:54;;;;;;;3.00;1.80;;;25.70;62.00;;;;;;4994505;28;20465;-68
2022/08/03 00:26:20;;;;;;;2.90;1.80;;;25.60;62.00;;;;;;4993883;28;20394;-67
2022/08/03 00:28:46;;;;;;;2.50;1.90;;;25.60;61.90;;;;;;4994302;28;20429;-68
2022/08/03 00:31:12;;;;;;;3.03;1.93;;;25.60;61.90;;;;;;4994280;28;20450;-67
2022/08/03 00:33:37;;;;;;;2.45;2.00;;;25.70;61.90;;;;;;4994358;28;20390;-67
2022/08/03 00:36:03;;;;;;;2.08;1.90;;;25.60;61.90;;;;;;4994145;28;20425;-67
2022/08/03 00:38:29;;;;;;;2.17;1.73;;;25.70;62.00;;;;;;4993891;28;20755;-68
2022/08/03 00:40:55;;;;;;;1.92;1.70;;;25.60;61.90;;;;;;4994085;28;20394;-68
2022/08/03 00:43:25;;;;;;;2.60;1.83;;;25.60;62.00;;;;;;4994109;28;20409;-68
2022/08/03 00:45:51;;;;;;;2.03;1.83;;;25.60;62.00;;;;;;4994174;28;20442;-68
2022/08/03 00:48:16;;;;;;;2.30;1.80;;;25.60;62.20;;;;;;4992402;28;20873;-68
2022/08/03 00:50:42;;;;;;;2.10;1.90;;;25.60;62.00;;;;;;4993848;28;20429;-68
2022/08/03 00:53:13;;;;;;;2.50;1.80;;;25.60;61.90;;;;;;4993920;28;20410;-68
2022/08/03 00:55:40;;;;;;;2.22;1.70;;;25.60;61.90;;;;;;4993999;28;20426;-69
2022/08/03 00:58:07;;;;;;;2.10;2.00;;;25.60;61.80;;;;;;4976256;28;21021;-70
2022/08/03 01:00:35;;;;;;;2.10;1.90;;;25.60;61.80;;;;;;4975995;28;20519;-68
2022/08/03 01:03:01;;;;;;;1.88;1.60;;;25.60;61.70;;;;;;4993823;28;20391;-68
2022/08/03 01:05:28;;;;;;;1.80;1.70;;;25.60;62.00;;;;;;4993685;28;20413;-67
2022/08/03 01:08:25;;;;;;;2.85;1.80;;;25.60;62.10;;;;;;5009488;28;20914;-68
2022/08/03 01:11:05;;;;;;;4.85;2.00;;;25.60;62.00;;;;;;5012657;28;20424;-68
2022/08/03 01:13:34;;;;;;;4.70;1.70;;;25.60;62.10;;;;;;5013251;28;20421;-68
2022/08/03 01:16:09;;;;;;;2.80;1.60;;;25.60;61.60;;;;;;5013228;28;20393;-68
2022/08/03 01:18:49;;;;;;;3.25;1.70;;;25.60;61.50;;;;;;4995443;28;20432;-68
2022/08/03 01:21:32;;;;;;;3.63;1.85;;;25.60;61.30;;;;;;5008087;28;20415;-68
2022/08/03 01:24:21;;;;;;;3.20;1.98;;;25.60;61.20;;;;;;5008343;28;20407;-68
2022/08/03 01:27:06;;;;;;;4.15;2.10;;;25.60;61.10;;;;;;4981850;28;20419;-68
2022/08/03 01:29:56;;;;;;;3.95;1.77;;;25.60;61.10;;;;;;4994952;28;20410;-68
2022/08/03 01:32:38;;;;;;;2.58;1.92;;;25.60;61.10;;;;;;5010429;28;20410;-69
2022/08/03 01:35:12;;;;;;;2.47;2.00;;;25.60;61.20;;;;;;4988371;28;20427;-68
2022/08/03 01:37:46;;;;;;;3.40;2.10;;;25.60;61.20;;;;;;5002112;28;20457;-68
2022/08/03 01:40:14;;;;;;;3.40;2.00;;;25.60;61.10;;;;;;5000525;28;20393;-68
2022/08/03 01:42:41;;;;;;;2.67;1.80;;;25.60;61.10;;;;;;5000604;28;20429;-68
2022/08/03 01:45:09;;;;;;;5.22;2.30;;;25.60;61.00;;;;;;5003519;28;20421;-68
2022/08/03 01:47:37;;;;;;;3.17;1.95;;;25.60;61.00;;;;;;5003483;28;20493;-68
2022/08/03 01:50:04;;;;;;;3.47;1.77;;;25.60;61.00;;;;;;5000953;28;20438;-68
2022/08/03 01:52:31;;;;;;;3.22;1.88;;;25.60;60.90;;;;;;4999196;28;20410;-68
2022/08/03 01:54:58;;;;;;;2.80;1.80;;;25.60;60.90;;;;;;5003304;28;20397;-68
2022/08/03 01:57:27;;;;;;;2.47;1.95;;;25.60;61.50;;;;;;4999145;28;20403;-68
2022/08/03 01:59:56;;;;;;;2.03;1.80;;;25.60;60.90;;;;;;5001770;28;20404;-68
2022/08/03 02:02:22;;;;;;;2.22;2.00;;;25.60;60.80;;;;;;4998301;28;20404;-69
2022/08/03 02:04:51;;;;;;;2.00;1.80;;;25.60;60.90;;;;;;5003351;28;20388;-69
2022/08/03 02:07:19;;;;;;;2.13;1.77;;;25.60;60.80;;;;;;4983603;28;20431;-70
2022/08/03 02:09:48;;;;;;;1.73;1.58;;;25.50;60.80;;;;;;4999642;28;20439;-68
2022/08/03 02:12:15;;;;;;;2.33;1.80;;;25.60;60.90;;;;;;4999671;28;20394;-69
2022/08/03 02:14:43;;;;;;;2.10;1.90;;;25.50;60.80;;;;;;5000795;28;20465;-68
2022/08/03 02:17:09;;;;;;;3.63;2.00;;;25.50;60.70;;;;;;4992846;28;20396;-68
2022/08/03 02:19:36;;;;;;;2.08;1.90;;;25.50;60.70;;;;;;5001580;28;20391;-68
2022/08/03 02:22:04;;;;;;;2.00;1.80;;;25.50;60.70;;;;;;5000491;28;20397;-68
2022/08/03 02:24:31;;;;;;;2.05;1.85;;;25.50;60.80;;;;;;4982376;28;21241;-68
2022/08/03 02:26:58;;;;;;;1.88;1.70;;;25.60;60.70;;;;;;5004695;28;20406;-68
2022/08/03 02:29:28;;;;;;;2.03;1.83;;;25.50;60.70;;;;;;4982253;28;20775;-68
2022/08/03 02:31:58;;;;;;;4.78;2.05;;;25.50;60.60;;;;;;5003013;28;20416;-68
2022/08/03 02:34:28;;;;;;;2.85;1.90;;;25.50;60.60;;;;;;5003191;28;20900;-68
2022/08/03 02:36:59;;;;;;;2.60;2.00;;;25.50;60.60;;;;;;5000610;28;20912;-68
2022/08/03 02:39:27;;;;;;;2.20;1.70;;;25.50;60.60;;;;;;4999642;28;21143;-68
2022/08/03 02:42:01;;;;;;;2.63;1.58;;;25.50;60.50;;;;;;5000394;28;20857;-68
2022/08/03 02:44:29;;;;;;;2.00;1.90;;;25.50;60.40;;;;;;4984009;28;20417;-68
2022/08/03 02:46:59;;;;;;;1.90;1.70;;;25.50;60.50;;;;;;5002370;28;20861;-68
2022/08/03 02:49:27;;;;;;;1.90;1.60;;;25.50;60.50;;;;;;4982056;28;20917;-68
2022/08/03 02:51:54;;;;;;;2.55;1.92;;;25.50;60.40;;;;;;5001078;28;20425;-69
2022/08/03 02:54:23;;;;;;;2.53;1.85;;;25.50;60.40;;;;;;5004357;28;20478;-68
2022/08/03 02:56:50;;;;;;;2.28;1.80;;;25.50;60.50;;;;;;5001489;28;20398;-69
2022/08/03 02:59:18;;;;;;;2.63;1.70;;;25.50;60.40;;;;;;5000234;28;20396;-69
2022/08/03 03:01:45;;;;;;;2.10;1.90;;;25.50;60.40;;;;;;5000531;28;20401;-68
2022/08/03 03:04:11;;;;;;;2.00;1.80;;;25.50;60.40;;;;;;5002877;28;20389;-67
2022/08/03 03:06:39;;;;;;;7.25;1.85;;;25.50;60.50;;;;;;5000849;28;20913;-68
2022/08/03 03:09:05;;;;;;;13.87;2.70;;;25.50;61.30;;;;;;5003769;28;20891;-67
2022/08/03 03:11:32;;;;;;;12.63;2.50;;;25.50;61.00;;;;;;5001333;28;20451;-68
2022/08/03 03:13:59;;;;;;;6.82;2.20;;;25.50;61.20;;;;;;5003635;28;20388;-68
2022/08/03 03:16:27;;;;;;;13.23;2.10;;;25.50;61.30;;;;;;4995188;28;20395;-69
2022/08/03 03:18:53;;;;;;;6.30;2.20;;;25.60;63.50;;;;;;4998874;28;20475;-70
2022/08/03 03:21:20;;;;;;;8.25;2.08;;;25.60;63.50;;;;;;5010949;28;20779;-68
2022/08/03 03:23:47;;;;;;;5.93;2.03;;;25.70;63.70;;;;;;4979113;28;20472;-69
2022/08/03 03:26:14;;;;;;;11.85;2.20;;;25.70;63.60;;;;;;5007256;28;20400;-69
2022/08/03 03:28:40;;;;;;;6.80;2.00;;;25.70;63.70;;;;;;4985928;28;20407;-68
2022/08/03 03:31:07;;;;;;;7.10;2.20;;;25.80;63.90;;;;;;5010523;28;20507;-68
2022/08/03 03:33:33;;;;;;;5.32;2.22;;;25.80;64.20;;;;;;5011603;28;20377;-71
2022/08/03 03:36:00;;;;;;;7.50;2.00;;;25.80;64.20;;;;;;5011090;28;21182;-69
2022/08/03 03:38:25;;;;;;;9.20;2.30;;;25.80;63.20;;;;;;4993220;28;20412;-69
2022/08/03 03:40:51;;;;;;;7.85;2.30;;;25.80;64.40;;;;;;5001613;28;20941;-68
2022/08/03 03:43:17;;;;;;;10.20;2.50;;;25.80;64.40;;;;;;4999953;28;20405;-68
2022/08/03 03:45:44;;;;;;;5.15;2.00;;;25.90;64.70;;;;;;4999795;28;20455;-68
2022/08/03 03:48:10;;;;;;;7.30;2.30;;;25.80;63.10;;;;;;4999777;28;20404;-68
2022/08/03 03:50:39;;;;;;;5.30;2.22;;;25.80;62.90;;;;;;4994279;28;20429;-70
2022/08/03 03:53:08;;;;;;;4.68;2.13;;;25.70;62.40;;;;;;5001120;28;20399;-69
2022/08/03 03:55:34;;;;;;;6.13;2.05;;;25.80;63.60;;;;;;5003944;28;20416;-70
2022/08/03 03:58:00;;;;;;;5.68;2.15;;;25.80;63.90;;;;;;5003502;28;20390;-68
2022/08/03 04:00:26;;;;;;;6.03;2.00;;;25.80;63.50;;;;;;5001582;28;20902;-69
2022/08/03 04:02:52;;;;;;;5.28;2.05;;;25.80;63.40;;;;;;5003863;28;20484;-69
2022/08/03 04:11:11;;;;;;;5.95;2.03;;;25.80;63.10;;;;;;4994585;28;20461;-68
2022/08/03 04:13:51;;;;;;;5.90;2.10;;;25.80;62.60;;;;;;4994730;28;20448;-68
2022/08/03 04:16:20;;;;;;;6.72;2.38;;;25.80;62.20;;;;;;4994447;28;20394;-69
2022/08/03 04:18:51;;;;;;;8.55;2.60;;;25.80;61.70;;;;;;4994434;28;20437;-68
2022/08/03 04:21:18;;;;;;;12.95;2.60;;;25.70;61.50;;;;;;4994677;28;20391;-68
2022/08/03 04:23:47;;;;;;;7.38;2.65;;;25.70;60.70;;;;;;4977222;28;20399;-68
2022/08/03 04:26:15;;;;;;;6.55;2.35;;;25.70;60.10;;;;;;4993414;28;20402;-68
2022/08/03 04:28:44;;;;;;;7.13;2.47;;;25.70;59.90;;;;;;4994093;28;20398;-68
2022/08/03 04:31:11;;;;;;;4.88;2.20;;;25.60;59.40;;;;;;4994416;28;20445;-68
2022/08/03 04:33:38;;;;;;;5.70;2.60;;;25.60;59.00;;;;;;4976970;28;20403;-68
2022/08/03 04:36:07;;;;;;;12.25;2.63;;;25.60;58.30;;;;;;4994276;28;20403;-68
2022/08/03 04:38:38;;;;;;;16.10;3.00;;;25.50;58.30;;;;;;4976271;28;20406;-69
2022/08/03 04:41:06;;;;;;;11.65;2.67;;;25.50;58.10;;;;;;4994408;28;20394;-68
2022/08/03 04:43:33;;;;;;;22.67;3.00;;;25.50;57.70;;;;;;4994227;28;20401;-69
2022/08/03 04:46:00;;;;;;;12.15;3.03;;;25.50;57.80;;;;;;4993011;28;20473;-68
2022/08/03 04:48:26;;;;;;;14.23;3.20;;;25.50;57.80;;;;;;4976311;28;20400;-68
2022/08/03 04:50:53;;;;;;;13.20;3.10;;;25.40;57.50;;;;;;4976695;28;20422;-68
2022/08/03 04:53:19;;;;;;;12.68;2.95;;;25.40;57.60;;;;;;4993867;28;20890;-69
2022/08/03 04:55:44;;;;;;;8.57;2.80;;;25.40;56.80;;;;;;4992900;28;20437;-68
2022/08/03 04:58:11;;;;;;;10.43;3.00;;;25.40;57.90;;;;;;4976700;28;20437;-69
2022/08/03 05:00:37;;;;;;;16.33;2.90;;;25.40;58.00;;;;;;4993531;28;20398;-68
2022/08/03 05:03:02;;;;;;;11.93;2.67;;;25.40;58.00;;;;;;4993260;28;20890;-68
2022/08/03 05:05:28;;;;;;;11.93;2.70;;;25.40;58.10;;;;;;4992360;28;20409;-68
2022/08/03 05:07:55;;;;;;;8.53;2.50;;;25.50;58.20;;;;;;4993546;28;20414;-68
2022/08/03 05:10:20;;;;;;;10.27;2.50;;;25.40;58.30;;;;;;4993028;28;20402;-69
2022/08/03 05:12:47;;;;;;;6.90;2.33;;;25.40;58.40;;;;;;4993304;28;20402;-68
2022/08/03 05:15:13;;;;;;;5.45;2.30;;;25.40;58.50;;;;;;4993531;28;20426;-68
2022/08/03 05:17:40;;;;;;;6.15;2.20;;;25.40;58.60;;;;;;4992364;28;20403;-68
2022/08/03 05:20:06;;;;;;;5.88;2.20;;;25.40;59.30;;;;;;4992226;28;20390;-68
2022/08/03 05:22:32;;;;;;;6.20;2.20;;;25.40;58.70;;;;;;4992847;28;20399;-68
2022/08/03 05:24:59;;;;;;;6.15;2.28;;;25.40;58.80;;;;;;4993540;28;20413;-69
2022/08/03 05:27:25;;;;;;;4.53;2.30;;;25.40;58.80;;;;;;4993417;28;20395;-68
2022/08/03 05:29:51;;;;;;;5.32;2.13;;;25.40;58.90;;;;;;4993337;28;20489;-68
2022/08/03 05:32:16;;;;;;;5.63;2.20;;;25.40;58.90;;;;;;4993187;28;20449;-68
2022/08/03 05:34:42;;;;;;;5.10;2.03;;;25.40;58.90;;;;;;4975077;28;20481;-68
2022/08/03 05:37:08;;;;;;;4.53;1.92;;;25.40;59.00;;;;;;4992816;28;20854;-68
2022/08/03 05:39:34;;;;;;;5.03;2.17;;;25.40;59.00;;;;;;4993176;28;20485;-69
2022/08/03 05:42:00;;;;;;;4.30;2.10;;;25.40;59.00;;;;;;4993251;28;20401;-69
2022/08/03 05:44:26;;;;;;;4.15;2.10;;;25.40;59.00;;;;;;4992795;28;20407;-68
2022/08/03 05:46:51;;;;;;;5.00;1.98;;;25.40;59.00;;;;;;4992807;28;20481;-68
2022/08/03 05:49:18;;;;;;;3.43;2.00;;;25.40;59.10;;;;;;4993032;28;20409;-69
2022/08/03 05:51:44;;;;;;;3.87;2.20;;;25.40;59.10;;;;;;4992909;28;20516;-68
2022/08/03 05:54:09;;;;;;;4.45;2.00;;;25.40;59.20;;;;;;4992932;28;20386;-68
2022/08/03 05:56:35;;;;;;;12.60;2.50;;;25.40;59.20;;;;;;4992427;28;20402;-68
2022/08/03 05:59:01;;;;;;;8.70;2.50;;;25.40;59.30;;;;;;4992884;28;20397;-68
2022/08/03 06:01:26;;;;;;;13.70;2.67;;;25.40;59.30;;;;;;4992881;28;20393;-68
2022/08/03 06:03:52;;;;;;;7.60;2.60;;;25.40;59.20;;;;;;4992784;28;20390;-68
2022/08/03 06:06:18;;;;;;;7.32;2.28;;;25.40;59.80;;;;;;4992830;28;20775;-69
2022/08/03 06:08:44;;;;;;;6.18;1.98;;;25.40;59.30;;;;;;4992270;28;20390;-68
2022/08/03 06:11:10;;;;;;;6.85;2.50;;;25.40;59.30;;;;;;4992642;28;20456;-68
2022/08/03 06:13:36;;;;;;;6.10;2.45;;;25.40;59.30;;;;;;4992604;28;20458;-68
2022/08/03 06:16:03;;;;;;;4.85;2.08;;;25.40;59.90;;;;;;4974935;28;20985;-68
2022/08/03 06:18:28;;;;;;;6.82;2.00;;;25.40;59.30;;;;;;4992178;28;20390;-68
2022/08/03 06:20:54;;;;;;;6.43;2.10;;;25.40;59.40;;;;;;4974933;28;20404;-68
2022/08/03 06:23:20;;;;;;;6.33;2.30;;;25.40;59.40;;;;;;4992261;28;20430;-68
2022/08/03 06:25:46;;;;;;;6.05;2.40;;;25.40;59.40;;;;;;4991860;28;20489;-68
2022/08/03 06:28:13;;;;;;;5.75;2.30;;;25.50;59.40;;;;;;4992192;28;20391;-68
2022/08/03 06:30:39;;;;;;;6.95;2.25;;;25.40;59.40;;;;;;4991735;28;20464;-68
2022/08/03 06:33:05;;;;;;;5.63;2.20;;;25.50;59.40;;;;;;4992351;28;20398;-68
2022/08/03 06:35:30;;;;;;;6.27;2.10;;;25.50;59.30;;;;;;4991034;28;20387;-68
2022/08/03 06:37:56;;;;;;;4.85;2.40;;;25.50;59.30;;;;;;4992105;28;20468;-68
2022/08/03 06:40:30;;;;;;;4.97;2.00;;;25.50;59.30;;;;;;4974438;28;21058;-68
2022/08/03 06:43:01;;;;;;;4.83;2.17;;;25.50;59.40;;;;;;4974687;28;20434;-67
2022/08/03 06:45:27;;;;;;;4.63;1.90;;;25.50;59.20;;;;;;4992118;28;20485;-68
2022/08/03 06:48:01;;;;;;;4.13;2.35;;;25.50;59.20;;;;;;4974687;28;20490;-68
2022/08/03 06:50:27;;;;;;;5.17;2.23;;;25.60;59.30;;;;;;4991813;28;20402;-68
2022/08/03 06:52:53;;;;;;;5.05;2.20;;;25.60;59.30;;;;;;4991814;28;20473;-68
2022/08/03 06:55:18;;;;;;;4.07;1.90;;;25.50;59.20;;;;;;4991978;28;20395;-68
2022/08/03 06:57:44;;;;;;;4.20;1.83;;;25.50;59.20;;;;;;4990861;28;20394;-68
2022/08/03 07:00:10;;;;;;;4.95;2.15;;;25.60;59.20;;;;;;4991959;28;20398;-69
2022/08/03 07:02:37;;;;;;;5.55;2.30;;;25.50;59.20;;;;;;4991538;28;20413;-68
2022/08/03 07:05:03;;;;;;;5.13;2.20;;;25.50;59.20;;;;;;4991805;28;20394;-69
2022/08/03 07:07:28;;;;;;;3.72;1.88;;;25.50;59.20;;;;;;4974490;28;20462;-68
2022/08/03 07:09:54;;;;;;;3.65;2.15;;;25.50;59.20;;;;;;4991866;28;20477;-68
2022/08/03 07:12:20;;;;;;;3.93;2.10;;;25.50;59.20;;;;;;4991900;28;20430;-68
2022/08/03 07:14:45;;;;;;;5.00;2.03;;;25.60;59.30;;;;;;4991439;28;20862;-68
2022/08/03 07:17:11;;;;;;;10.30;2.80;;;25.50;59.30;;;;;;4991586;28;20886;-69
2022/08/03 07:19:36;;;;;;;24.53;5.00;;;25.50;59.40;;;;;;4991979;28;20490;-68
2022/08/03 07:22:02;;;;;;;18.73;4.37;;;25.50;59.50;;;;;;4991929;28;20401;-68
2022/08/03 07:24:28;;;;;;;20.95;4.78;;;25.60;59.60;;;;;;4991550;28;20544;-68
2022/08/03 07:26:54;;;;;;;15.40;3.70;;;25.60;59.70;;;;;;4992746;28;20763;-68
2022/08/03 07:29:19;;;;;;;20.05;4.43;;;25.60;59.70;;;;;;4995640;28;20448;-68
2022/08/03 07:31:45;;;;;;;22.13;4.73;;;25.60;59.80;;;;;;4995627;28;20898;-68
2022/08/03 07:34:11;;;;;;;25.67;4.30;;;25.60;59.80;;;;;;4995525;28;20397;-68
2022/08/03 07:36:37;;;;;;;16.02;3.97;;;25.50;59.80;;;;;;4994890;28;20492;-68
2022/08/03 07:39:03;;;;;;;12.52;3.53;;;25.60;59.80;;;;;;4995337;28;20469;-68
2022/08/03 07:41:29;;;;;;;16.67;3.70;;;25.60;59.80;;;;;;4994775;28;20478;-68
2022/08/03 07:43:54;;;;;;;12.40;3.25;;;25.60;59.80;;;;;;4994065;28;20422;-68
2022/08/03 07:46:20;;;;;;;13.87;3.30;;;25.50;59.70;;;;;;4995309;28;20390;-68
2022/08/03 07:48:45;;;;;;;12.57;3.20;;;25.50;59.90;;;;;;4994789;28;21058;-68
2022/08/03 07:51:11;;;;;;;12.27;3.20;;;25.60;61.00;;;;;;4995215;28;20910;-68
2022/08/03 07:53:37;;;;;;;13.57;3.30;;;25.60;61.80;;;;;;4995274;28;20899;-69
2022/08/03 07:56:03;;;;;;;13.95;3.40;;;25.60;61.10;;;;;;4996302;28;20481;-68
2022/08/03 07:58:29;;;;;;;12.15;3.20;;;25.70;61.00;;;;;;4995261;28;20474;-67
2022/08/03 08:00:54;;;;;;;12.63;2.88;;;25.70;60.80;;;;;;4995409;28;20422;-68
2022/08/03 08:03:23;;;;;;;10.00;3.03;;;25.70;60.70;;;;;;4994559;28;20403;-68
2022/08/03 08:05:48;;;;;;;10.40;2.55;;;25.70;60.20;;;;;;4994824;28;20407;-68
2022/08/03 08:08:14;;;;;;;8.20;2.60;;;25.70;60.30;;;;;;4993640;28;20402;-68
2022/08/03 08:10:40;;;;;;;8.60;2.60;;;25.70;60.50;;;;;;4993248;28;20453;-68
2022/08/03 08:13:05;;;;;;;11.33;2.87;;;25.70;60.00;;;;;;4977452;28;20422;-68
2022/08/03 08:15:31;;;;;;;10.35;2.83;;;25.70;60.10;;;;;;4995753;28;20437;-69
2022/08/03 08:17:59;;;;;;;7.47;2.67;;;25.60;59.90;;;;;;4995711;28;20479;-68
2022/08/03 08:20:31;;;;;;;5.32;2.60;;;25.60;59.90;;;;;;4995073;28;20398;-68
2022/08/03 08:23:03;;;;;;;7.35;2.63;;;25.60;59.90;;;;;;4994544;28;20666;-68
2022/08/03 08:25:30;;;;;;;7.60;2.58;;;25.60;59.90;;;;;;4994527;28;20474;-68
2022/08/03 08:27:56;;;;;;;8.93;2.55;;;25.70;60.00;;;;;;4994564;28;20405;-68
2022/08/03 08:30:23;;;;;;;5.27;2.33;;;25.60;59.90;;;;;;4995375;28;20406;-70
2022/08/03 08:32:49;;;;;;;5.32;2.25;;;25.60;59.90;;;;;;4994540;28;20394;-68
2022/08/03 08:35:15;;;;;;;8.27;2.40;;;25.70;59.90;;;;;;4994344;28;20387;-69
2022/08/03 08:37:42;;;;;;;5.53;2.40;;;25.70;59.90;;;;;;4994143;28;20875;-67
2022/08/03 08:40:09;;;;;;;6.45;2.40;;;25.60;59.80;;;;;;4994159;28;20751;-68
2022/08/03 08:42:39;;;;;;;5.05;2.60;;;25.70;59.80;;;;;;4994086;28;20429;-68
2022/08/03 08:45:07;;;;;;;5.18;2.40;;;25.60;59.80;;;;;;4976873;28;20473;-69
2022/08/03 08:47:36;;;;;;;6.73;2.50;;;25.70;59.80;;;;;;4994614;28;20398;-69
2022/08/03 08:50:02;;;;;;;8.45;2.80;;;25.70;59.80;;;;;;4993920;28;20442;-68
2022/08/03 08:52:30;;;;;;;9.98;2.75;;;25.70;59.80;;;;;;4992768;28;20413;-68
2022/08/03 08:55:02;;;;;;;7.82;3.15;;;25.70;59.80;;;;;;4975709;28;20402;-68
2022/08/03 08:57:32;;;;;;;7.30;2.72;;;25.70;59.80;;;;;;4992350;28;20438;-68
2022/08/03 09:00:00;;;;;;;9.00;2.95;;;25.70;59.80;;;;;;4994032;28;20394;-70
2022/08/03 09:02:29;;;;;;;8.20;3.20;;;25.70;59.80;;;;;;4994707;28;20420;-67
2022/08/03 09:04:55;;;;;;;10.43;2.70;;;25.70;59.70;;;;;;4993661;28;20386;-68
2022/08/03 09:07:21;;;;;;;10.38;3.38;;;25.70;59.70;;;;;;4993613;28;20409;-68
2022/08/03 09:09:47;;;;;;;11.38;3.35;;;25.70;60.30;;;;;;4993829;28;20390;-68
2022/08/03 09:12:14;;;;;;;6.85;2.75;;;25.80;59.80;;;;;;4993499;28;20418;-68
2022/08/03 09:14:40;;;;;;;8.35;2.78;;;25.70;59.70;;;;;;4993289;28;20449;-68
2022/08/03 09:17:05;;;;;;;7.20;2.70;;;25.70;59.70;;;;;;4992352;28;20955;-68
2022/08/03 09:19:33;;;;;;;7.05;2.60;;;25.70;59.70;;;;;;4993650;28;20475;-68
2022/08/03 09:22:16;;;;;;;8.02;2.72;;;25.70;59.60;;;;;;4993400;28;20414;-68
2022/08/03 09:24:56;;;;;;;7.10;2.50;;;25.80;59.70;;;;;;4975518;28;20755;-68
2022/08/03 09:27:23;;;;;;;6.68;2.75;;;25.80;59.70;;;;;;4993331;28;20713;-68
2022/08/03 09:29:50;;;;;;;7.60;2.80;;;25.80;59.60;;;;;;4993420;28;20395;-68
2022/08/03 09:32:22;;;;;;;7.63;2.93;;;25.80;59.60;;;;;;4993442;28;20800;-68
2022/08/03 09:34:49;;;;;;;7.43;2.80;;;25.80;59.60;;;;;;4992823;28;20542;-68
2022/08/03 09:37:17;;;;;;;6.55;2.58;;;25.80;59.60;;;;;;4992985;28;20398;-68
2022/08/03 09:39:44;;;;;;;6.43;2.50;;;25.80;59.60;;;;;;4991802;28;20752;-68
2022/08/03 09:42:14;;;;;;;7.00;2.67;;;25.80;59.60;;;;;;4993152;28;20502;-68
2022/08/03 09:44:41;;;;;;;8.20;2.70;;;25.80;59.50;;;;;;4992828;28;20460;-69
2022/08/03 09:47:09;;;;;;;6.97;2.58;;;25.80;59.50;;;;;;4993395;28;20401;-69
2022/08/03 09:49:35;;;;;;;7.40;2.70;;;25.80;59.50;;;;;;4975641;28;20456;-70
2022/08/03 09:52:14;;;;;;;7.45;2.60;;;25.80;59.50;;;;;;4993797;28;20418;-68
2022/08/03 09:54:41;;;;;;;7.18;3.00;;;25.80;59.50;;;;;;4992905;28;20402;-68
2022/08/03 09:57:07;;;;;;;6.97;2.70;;;25.80;59.50;;;;;;4992793;28;20767;-68
2022/08/03 09:59:34;;;;;;;6.80;2.37;;;25.80;59.50;;;;;;4992809;28;20379;-68
2022/08/03 10:02:00;;;;;;;7.38;2.70;;;25.80;59.40;;;;;;4992668;28;20545;-68
2022/08/03 10:04:27;;;;;;;5.65;2.55;;;25.80;59.40;;;;;;4992667;28;20406;-68
2022/08/03 10:07:08;;;;;;;5.95;2.55;;;25.80;59.40;;;;;;4992995;28;20406;-68
2022/08/03 10:09:35;;;;;;;6.88;3.08;;;25.80;59.40;;;;;;4992232;28;20390;-68
2022/08/03 10:12:08;;;;;;;8.65;2.88;;;25.80;59.40;;;;;;4992054;28;20459;-68
2022/08/03 10:14:37;;;;;;;8.07;2.88;;;25.80;59.40;;;;;;4992440;28;20383;-68
2022/08/03 10:17:03;;;;;;;6.60;2.95;;;25.80;59.40;;;;;;4992250;28;20544;-68
2022/08/03 10:19:29;;;;;;;7.80;3.00;;;25.80;59.40;;;;;;4992449;28;20834;-67
2022/08/03 10:22:01;;;;;;;5.60;2.63;;;25.90;59.40;;;;;;4992842;28;20390;-68
2022/08/03 10:24:29;;;;;;;7.50;2.67;;;25.80;59.90;;;;;;4992063;28;20497;-68
2022/08/03 10:27:04;;;;;;;8.38;2.90;;;25.80;59.30;;;;;;4991943;28;20390;-68
2022/08/03 10:29:44;;;;;;;7.03;2.78;;;25.80;59.30;;;;;;4992306;28;20394;-68
2022/08/03 10:32:21;;;;;;;6.90;2.80;;;25.80;59.40;;;;;;4992160;28;20418;-68
2022/08/03 10:34:49;;;;;;;8.77;3.08;;;25.80;59.40;;;;;;4991645;28;20867;-68
2022/08/03 10:37:16;;;;;;;6.70;3.00;;;25.80;59.40;;;;;;4993100;28;20426;-68
2022/08/03 10:39:52;;;;;;;5.90;2.50;;;25.90;59.40;;;;;;4993584;28;20391;-68
2022/08/03 10:42:21;;;;;;;7.28;2.80;;;25.90;59.40;;;;;;4991812;28;20592;-68
2022/08/03 10:44:54;;;;;;;7.47;2.80;;;25.90;59.40;;;;;;4991601;28;20427;-68
2022/08/03 10:47:20;;;;;;;11.55;2.70;;;25.90;59.20;;;;;;4992952;28;20409;-68
2022/08/03 10:49:48;;;;;;;11.17;2.80;;;25.90;59.60;;;;;;4993044;28;20893;-68
2022/08/03 10:52:14;;;;;;;15.27;3.38;;;25.90;60.20;;;;;;4975181;28;20784;-67
2022/08/03 10:57:45;;;;;;;9.55;2.80;;;26.00;61.50;;;;;;4992117;28;20799;-67
2022/08/03 11:00:13;;;;;;;11.55;2.92;;;26.00;61.00;;;;;;4998996;28;20459;-68
2022/08/03 11:03:05;;;;;;;7.07;2.97;;;26.10;61.50;;;;;;5004089;28;20809;-69
2022/08/03 11:05:34;;;;;;;10.00;3.28;;;26.10;61.70;;;;;;5005973;28;20869;-68
2022/08/03 11:08:24;;;;;;;7.20;2.95;;;26.10;61.10;;;;;;5004420;28;20400;-68
2022/08/03 11:10:56;;;;;;;7.30;2.75;;;26.10;60.70;;;;;;4990905;28;20421;-67
2022/08/03 11:13:24;;;;;;;8.03;2.87;;;26.10;60.40;;;;;;4996168;28;20382;-68
2022/08/03 11:15:52;;;;;;;8.63;3.10;;;26.10;60.30;;;;;;4996013;28;20390;-67
2022/08/03 11:18:18;;;;;;;7.45;3.13;;;26.10;60.30;;;;;;4995864;28;20456;-67
2022/08/03 11:20:47;;;;;;;7.15;2.92;;;26.10;60.20;;;;;;4977887;28;20403;-67
2022/08/03 11:23:14;;;;;;;6.45;2.70;;;26.10;60.10;;;;;;4977913;28;20759;-69
2022/08/03 11:26:12;;;;;;;9.02;3.00;;;26.10;60.20;;;;;;4995471;28;20390;-67
2022/08/03 11:28:39;;;;;;;9.73;2.92;;;26.20;60.20;;;;;;4999852;28;20441;-68
2022/08/03 11:31:25;;;;;;;11.27;2.83;;;26.20;60.10;;;;;;5000022;28;20517;-71
2022/08/03 11:34:17;;;;;;;9.45;2.50;;;26.20;59.60;;;;;;4995830;28;20422;-70
2022/08/03 11:37:20;;;;;;;7.05;2.30;;;26.20;59.70;;;;;;4991600;28;20425;-68
2022/08/03 11:39:48;;;;;;;10.23;2.60;;;26.30;59.90;;;;;;4995421;28;20470;-67
2022/08/03 11:42:23;;;;;;;7.18;2.50;;;26.30;59.30;;;;;;4994224;28;20493;-68
2022/08/03 11:44:59;;;;;;;7.90;2.80;;;26.30;59.40;;;;;;4994920;28;20390;-68
2022/08/03 11:47:26;;;;;;;12.18;2.78;;;26.20;59.10;;;;;;4977934;28;20394;-68
2022/08/03 11:50:00;;;;;;;9.75;3.00;;;26.20;59.20;;;;;;4994119;28;20456;-68
2022/08/03 11:52:33;;;;;;;7.35;2.40;;;26.20;59.10;;;;;;4995266;28;20408;-68
2022/08/03 11:54:59;;;;;;;6.75;2.70;;;26.20;59.10;;;;;;4977288;28;20406;-68
2022/08/03 11:57:32;;;;;;;5.75;2.30;;;26.20;59.10;;;;;;4995107;28;20398;-68
2022/08/03 11:59:58;;;;;;;7.03;2.70;;;26.20;59.10;;;;;;4993844;28;20402;-68
2022/08/03 12:02:24;;;;;;;6.07;2.50;;;26.20;59.10;;;;;;4995106;28;20405;-68
2022/08/03 12:04:53;;;;;;;7.47;2.78;;;26.20;59.10;;;;;;4994600;28;20478;-68
2022/08/03 12:07:19;;;;;;;8.52;2.75;;;26.20;59.10;;;;;;4994923;28;20461;-68
2022/08/03 12:10:07;;;;;;;7.90;2.63;;;26.20;59.00;;;;;;4995031;28;20401;-68
2022/08/03 12:12:32;;;;;;;4.70;2.25;;;26.20;59.00;;;;;;4994380;28;20794;-68
2022/08/03 12:14:58;;;;;;;4.63;2.20;;;26.20;59.00;;;;;;4994460;28;20391;-68
2022/08/03 12:17:35;;;;;;;5.35;2.35;;;26.20;58.80;;;;;;4994909;28;20907;-68
2022/08/03 12:20:02;;;;;;;5.70;2.65;;;26.20;58.80;;;;;;4994775;28;20387;-68
2022/08/03 12:22:37;;;;;;;4.22;2.50;;;26.20;58.80;;;;;;4994754;28;20398;-68
2022/08/03 12:25:07;;;;;;;5.38;2.40;;;26.20;58.80;;;;;;4994236;28;20525;-68
2022/08/03 12:27:33;;;;;;;4.35;2.20;;;26.20;58.60;;;;;;4994627;28;20417;-68
2022/08/03 12:30:03;;;;;;;4.70;2.30;;;26.20;58.70;;;;;;4994494;28;20417;-68
2022/08/03 12:32:29;;;;;;;4.00;2.40;;;26.20;58.70;;;;;;4977006;28;20417;-68
2022/08/03 12:35:04;;;;;;;5.25;2.33;;;26.20;58.60;;;;;;4994103;28;20401;-68
2022/08/03 12:37:30;;;;;;;4.68;2.45;;;26.20;58.60;;;;;;4994339;28;21009;-67
2022/08/03 12:40:03;;;;;;;3.90;2.20;;;26.20;58.60;;;;;;4993968;28;20399;-68
2022/08/03 12:42:37;;;;;;;5.25;2.45;;;26.20;58.50;;;;;;4994142;28;20466;-68
2022/08/03 12:45:25;;;;;;;5.03;2.30;;;26.20;58.50;;;;;;4992478;28;20402;-68
2022/08/03 12:48:01;;;;;;;4.65;2.42;;;26.20;58.50;;;;;;4993066;28;20882;-68
2022/08/03 12:50:34;;;;;;;4.97;2.40;;;26.20;58.50;;;;;;4994106;28;20461;-68
2022/08/03 12:53:03;;;;;;;5.20;2.25;;;26.20;58.40;;;;;;4976611;28;20506;-68
2022/08/03 12:55:32;;;;;;;5.73;2.40;;;26.20;58.40;;;;;;4976630;28;20483;-68
2022/08/03 12:58:06;;;;;;;5.15;2.30;;;26.20;58.30;;;;;;4976483;28;20552;-68
2022/08/03 13:00:33;;;;;;;3.85;2.28;;;26.30;58.40;;;;;;4993525;28;20391;-68
2022/08/03 13:03:03;;;;;;;6.22;2.55;;;26.20;58.30;;;;;;4992196;28;20474;-68